Time,TemperatureF,DewpointF,PressureIn,WindDirection,WindDirectionDegrees,WindSpeedMPH,WindSpeedGustMPH,Humidity,HourlyPrecipIn,Conditions,Clouds,dailyrainin,SoftwareType,DateUTC
2013-06-03 00:02:00,51.1,42.1,29.32,West,270,0.0,0.4,71,0.00,,,0.00,WUHU216HW,2013-06-03 05:02:00,
2013-06-03 00:07:00,51.1,42.1,29.32,SSW,203,0.0,0.4,71,0.00,,,0.00,WUHU216HW,2013-06-03 05:07:00,
2013-06-03 00:12:00,51.1,42.1,29.32,SSW,203,0.0,0.2,71,0.00,,,0.00,WUHU216HW,2013-06-03 05:12:00,
2013-06-03 00:17:00,51.1,42.1,29.32,SSW,203,0.0,0.0,71,0.00,,,0.00,WUHU216HW,2013-06-03 05:17:00,
2013-06-03 00:22:00,50.9,42.3,29.32,SSW,203,0.0,0.0,72,0.00,,,0.00,WUHU216HW,2013-06-03 05:22:00,
2013-06-03 00:27:00,50.8,42.1,29.32,SSW,203,0.0,0.0,72,0.00,,,0.00,WUHU216HW,2013-06-03 05:27:00,
2013-06-03 00:32:00,50.6,42.0,29.32,SSW,203,0.0,0.0,72,0.00,,,0.00,WUHU216HW,2013-06-03 05:32:00,
2013-06-03 00:37:00,50.4,41.8,29.32,SSW,203,0.0,0.0,72,0.00,,,0.00,WUHU216HW,2013-06-03 05:37:00,
2013-06-03 00:42:00,50.2,41.9,29.32,SSW,203,0.0,0.0,73,0.00,,,0.00,WUHU216HW,2013-06-03 05:42:00,
2013-06-03 00:47:00,50.0,42.0,29.32,SW,225,0.0,0.0,74,0.00,,,0.00,WUHU216HW,2013-06-03 05:47:00,
2013-06-03 00:52:00,49.9,41.9,29.33,NNW,338,0.0,0.0,74,0.00,,,0.00,WUHU216HW,2013-06-03 05:52:00,
2013-06-03 00:57:00,49.7,41.7,29.33,NNW,338,0.0,0.0,74,0.00,,,0.00,WUHU216HW,2013-06-03 05:57:00,
2013-06-03 01:02:00,49.5,41.9,29.33,NNW,338,0.0,0.0,75,0.00,,,0.00,WUHU216HW,2013-06-03 06:02:00,
2013-06-03 01:07:00,49.3,41.7,29.33,NNW,338,0.0,0.0,75,0.00,,,0.00,WUHU216HW,2013-06-03 06:07:00,
2013-06-03 01:12:00,49.3,41.7,29.33,NW,315,0.0,0.0,75,0.00,,,0.00,WUHU216HW,2013-06-03 06:12:00,
2013-06-03 01:17:00,49.3,42.0,29.33,West,270,0.0,0.0,76,0.00,,,0.00,WUHU216HW,2013-06-03 06:17:00,
2013-06-03 01:22:00,49.1,41.9,29.32,West,270,0.0,0.0,76,0.00,,,0.00,WUHU216HW,2013-06-03 06:22:00,
2013-06-03 01:27:00,49.1,42.2,29.32,WNW,293,0.0,0.0,77,0.00,,,0.00,WUHU216HW,2013-06-03 06:27:00,
2013-06-03 01:32:00,49.1,42.2,29.33,WNW,293,0.0,0.0,77,0.00,,,0.00,WUHU216HW,2013-06-03 06:32:00,
2013-06-03 01:37:00,49.1,42.5,29.32,West,270,0.0,0.0,78,0.00,,,0.00,WUHU216HW,2013-06-03 06:37:00,
2013-06-03 01:42:00,49.1,42.5,29.32,West,270,0.0,0.0,78,0.00,,,0.00,WUHU216HW,2013-06-03 06:42:00,
2013-06-03 01:47:00,49.0,42.3,29.33,WSW,248,0.9,0.9,78,0.00,,,0.00,WUHU216HW,2013-06-03 06:47:00,
2013-06-03 01:52:00,49.0,42.3,29.33,West,270,0.4,1.3,78,0.00,,,0.00,WUHU216HW,2013-06-03 06:52:00,
2013-06-03 01:57:00,49.0,42.3,29.33,West,270,0.4,1.8,78,0.00,,,0.00,WUHU216HW,2013-06-03 06:57:00,
2013-06-03 02:02:00,49.1,42.5,29.32,West,270,0.9,1.8,78,0.00,,,0.00,WUHU216HW,2013-06-03 07:02:00,
2013-06-03 02:07:00,49.1,42.5,29.32,West,270,1.1,1.1,78,0.00,,,0.00,WUHU216HW,2013-06-03 07:07:00,
2013-06-03 02:12:00,49.1,42.5,29.32,West,270,1.1,1.1,78,0.00,,,0.00,WUHU216HW,2013-06-03 07:12:00,
2013-06-03 02:17:00,49.1,42.2,29.32,WSW,248,1.3,1.3,77,0.00,,,0.00,WUHU216HW,2013-06-03 07:17:00,
2013-06-03 02:22:00,49.1,42.2,29.32,WSW,248,1.1,1.3,77,0.00,,,0.00,WUHU216HW,2013-06-03 07:22:00,
2013-06-03 02:27:00,49.0,42.0,29.32,West,270,0.4,1.3,77,0.00,,,0.00,WUHU216HW,2013-06-03 07:27:00,
2013-06-03 02:32:00,49.0,42.0,29.32,West,270,1.1,1.6,77,0.00,,,0.00,WUHU216HW,2013-06-03 07:32:00,
2013-06-03 02:37:00,49.0,42.3,29.32,WSW,248,1.3,2.5,78,0.00,,,0.00,WUHU216HW,2013-06-03 07:37:00,
2013-06-03 02:42:00,48.8,42.1,29.32,WSW,248,0.9,2.5,78,0.00,,,0.00,WUHU216HW,2013-06-03 07:42:00,
2013-06-03 02:47:00,48.8,42.1,29.32,West,270,0.4,1.6,78,0.00,,,0.00,WUHU216HW,2013-06-03 07:47:00,
2013-06-03 02:52:00,48.6,41.9,29.32,West,270,1.1,1.1,78,0.00,,,0.00,WUHU216HW,2013-06-03 07:52:00,
2013-06-03 02:57:00,48.6,41.9,29.32,West,270,0.7,1.8,78,0.00,,,0.00,WUHU216HW,2013-06-03 07:57:00,
2013-06-03 03:02:00,48.6,41.9,29.32,West,270,1.3,1.8,78,0.00,,,0.00,WUHU216HW,2013-06-03 08:02:00,
2013-06-03 03:07:00,48.6,41.9,29.32,West,270,1.1,2.0,78,0.00,,,0.00,WUHU216HW,2013-06-03 08:07:00,
2013-06-03 03:12:00,48.6,41.9,29.32,West,270,0.4,2.0,78,0.00,,,0.00,WUHU216HW,2013-06-03 08:12:00,
2013-06-03 03:17:00,48.4,41.8,29.31,WSW,248,0.9,1.3,78,0.00,,,0.00,WUHU216HW,2013-06-03 08:17:00,
2013-06-03 03:22:00,48.4,41.8,29.31,WSW,248,1.1,1.8,78,0.00,,,0.00,WUHU216HW,2013-06-03 08:22:00,
2013-06-03 03:27:00,48.4,41.8,29.31,West,270,1.8,2.5,78,0.00,,,0.00,WUHU216HW,2013-06-03 08:27:00,
2013-06-03 03:32:00,48.6,41.9,29.31,West,270,1.1,3.4,78,0.00,,,0.00,WUHU216HW,2013-06-03 08:32:00,
2013-06-03 03:37:00,48.6,41.9,29.31,West,270,0.9,3.4,78,0.00,,,0.00,WUHU216HW,2013-06-03 08:37:00,
2013-06-03 03:42:00,48.6,41.9,29.31,West,270,0.9,1.8,78,0.00,,,0.00,WUHU216HW,2013-06-03 08:42:00,
2013-06-03 03:47:00,48.6,41.9,29.31,WSW,248,1.1,1.1,78,0.00,,,0.00,WUHU216HW,2013-06-03 08:47:00,
2013-06-03 03:52:00,48.6,41.9,29.31,West,270,1.1,1.1,78,0.00,,,0.00,WUHU216HW,2013-06-03 08:52:00,
2013-06-03 03:57:00,48.8,42.1,29.31,West,270,1.1,1.6,78,0.00,,,0.00,WUHU216HW,2013-06-03 08:57:00,
2013-06-03 04:02:00,48.6,41.9,29.31,WSW,248,0.9,1.6,78,0.00,,,0.00,WUHU216HW,2013-06-03 09:02:00,
2013-06-03 04:07:00,48.6,41.9,29.31,WSW,248,0.4,1.1,78,0.00,,,0.00,WUHU216HW,2013-06-03 09:07:00,
2013-06-03 04:12:00,48.2,41.6,29.31,WSW,248,0.0,1.1,78,0.00,,,0.00,WUHU216HW,2013-06-03 09:12:00,
2013-06-03 04:17:00,48.2,41.6,29.31,West,270,0.2,0.7,78,0.00,,,0.00,WUHU216HW,2013-06-03 09:17:00,
2013-06-03 04:22:00,48.1,41.5,29.31,WSW,248,0.2,0.2,78,0.00,,,0.00,WUHU216HW,2013-06-03 09:22:00,
2013-06-03 04:27:00,48.1,41.5,29.31,WSW,248,0.0,0.2,78,0.00,,,0.00,WUHU216HW,2013-06-03 09:27:00,
2013-06-03 04:32:00,47.9,41.3,29.32,WSW,248,0.0,0.2,78,0.00,,,0.00,WUHU216HW,2013-06-03 09:32:00,
2013-06-03 04:37:00,47.9,41.3,29.31,West,270,0.0,0.0,78,0.00,,,0.00,WUHU216HW,2013-06-03 09:37:00,
2013-06-03 04:42:00,47.5,41.3,29.31,WNW,293,0.0,0.0,79,0.00,,,0.00,WUHU216HW,2013-06-03 09:42:00,
2013-06-03 04:47:00,47.5,41.3,29.32,South,180,0.2,0.2,79,0.00,,,0.00,WUHU216HW,2013-06-03 09:47:00,
2013-06-03 04:52:00,47.2,41.0,29.32,South,180,0.0,0.2,79,0.00,,,0.00,WUHU216HW,2013-06-03 09:52:00,
2013-06-03 04:57:00,47.0,41.1,29.32,South,180,0.0,0.2,80,0.00,,,0.00,WUHU216HW,2013-06-03 09:57:00,
2013-06-03 05:02:00,46.8,40.7,29.32,South,180,0.0,0.4,79,0.00,,,0.00,WUHU216HW,2013-06-03 10:02:00,
2013-06-03 05:07:00,46.4,40.3,29.32,South,180,0.4,0.4,79,0.00,,,0.00,WUHU216HW,2013-06-03 10:07:00,
2013-06-03 05:12:00,46.4,40.3,29.32,South,180,0.0,0.4,79,0.00,,,0.00,WUHU216HW,2013-06-03 10:12:00,
2013-06-03 05:17:00,46.3,40.1,29.32,South,180,0.0,0.2,79,0.00,,,0.00,WUHU216HW,2013-06-03 10:17:00,
2013-06-03 05:22:00,46.1,40.0,29.32,South,180,0.0,0.0,79,0.00,,,0.00,WUHU216HW,2013-06-03 10:22:00,
2013-06-03 05:27:00,46.1,40.0,29.33,South,180,0.0,0.0,79,0.00,,,0.00,WUHU216HW,2013-06-03 10:27:00,
2013-06-03 05:32:00,45.9,39.8,29.33,South,180,0.0,0.0,79,0.00,,,0.00,WUHU216HW,2013-06-03 10:32:00,
2013-06-03 05:37:00,46.1,40.3,29.33,SSE,158,0.0,0.0,80,0.00,,,0.00,WUHU216HW,2013-06-03 10:37:00,
2013-06-03 05:42:00,46.3,40.5,29.33,SSE,158,0.0,0.0,80,0.00,,,0.00,WUHU216HW,2013-06-03 10:42:00,
2013-06-03 05:47:00,47.7,42.1,29.33,SSE,158,0.0,0.0,81,0.00,,,0.00,WUHU216HW,2013-06-03 10:47:00,
2013-06-03 05:52:00,49.9,44.2,29.33,SSE,158,0.0,0.0,81,0.00,,,0.00,WUHU216HW,2013-06-03 10:52:00,
2013-06-03 05:57:00,52.4,46.1,29.33,SSE,158,0.0,0.0,79,0.00,,,0.00,WUHU216HW,2013-06-03 10:57:00,
2013-06-03 06:02:00,54.9,47.8,29.33,SSE,158,0.0,0.0,77,0.00,,,0.00,WUHU216HW,2013-06-03 11:02:00,
2013-06-03 06:07:00,57.8,49.5,29.33,SSE,158,0.0,0.2,74,0.00,,,0.00,WUHU216HW,2013-06-03 11:07:00,
2013-06-03 06:12:00,60.5,50.8,29.33,SSE,158,0.0,0.2,70,0.00,,,0.00,WUHU216HW,2013-06-03 11:12:00,
2013-06-03 06:17:00,63.4,52.2,29.33,SSE,158,0.0,0.2,67,0.00,,,0.00,WUHU216HW,2013-06-03 11:17:00,
2013-06-03 06:22:00,65.2,52.7,29.33,SSE,158,0.0,0.2,64,0.00,,,0.00,WUHU216HW,2013-06-03 11:22:00,
2013-06-03 06:27:00,66.8,52.9,29.33,SSE,158,0.0,0.2,61,0.00,,,0.00,WUHU216HW,2013-06-03 11:27:00,
2013-06-03 06:32:00,68.8,53.4,29.34,SSE,158,0.2,0.2,58,0.00,,,0.00,WUHU216HW,2013-06-03 11:32:00,
2013-06-03 06:37:00,70.4,53.4,29.34,SSE,158,0.0,0.2,55,0.00,,,0.00,WUHU216HW,2013-06-03 11:37:00,
2013-06-03 06:42:00,71.8,54.2,29.34,SSE,158,0.0,0.0,54,0.00,,,0.00,WUHU216HW,2013-06-03 11:42:00,
2013-06-03 06:47:00,73.6,53.8,29.34,SSE,158,0.0,0.0,50,0.00,,,0.00,WUHU216HW,2013-06-03 11:47:00,
2013-06-03 06:52:00,74.5,54.1,29.34,SSE,158,0.0,0.0,49,0.00,,,0.00,WUHU216HW,2013-06-03 11:52:00,
2013-06-03 06:57:00,75.6,55.2,29.34,SE,135,0.7,0.7,49,0.00,,,0.00,WUHU216HW,2013-06-03 11:57:00,
2013-06-03 07:02:00,77.0,54.0,29.34,SE,135,0.4,0.7,45,0.00,,,0.00,WUHU216HW,2013-06-03 12:02:00,
2013-06-03 07:07:00,77.0,54.0,29.34,SE,135,0.2,0.9,45,0.00,,,0.00,WUHU216HW,2013-06-03 12:07:00,
2013-06-03 07:12:00,78.3,53.3,29.35,SE,135,0.4,0.9,42,0.00,,,0.00,WUHU216HW,2013-06-03 12:12:00,
2013-06-03 07:17:00,79.6,54.5,29.35,SE,135,0.0,0.7,42,0.00,,,0.00,WUHU216HW,2013-06-03 12:17:00,
2013-06-03 07:22:00,80.3,54.5,29.35,East,90,0.0,1.6,41,0.00,,,0.00,WUHU216HW,2013-06-03 12:22:00,
2013-06-03 07:27:00,80.5,53.3,29.35,East,90,0.4,1.6,39,0.00,,,0.00,WUHU216HW,2013-06-03 12:27:00,
2013-06-03 07:32:00,80.3,53.1,29.35,ENE,68,0.9,1.3,39,0.00,,,0.00,WUHU216HW,2013-06-03 12:32:00,
2013-06-03 07:37:00,79.7,52.6,29.35,ESE,113,0.4,1.8,39,0.00,,,0.00,WUHU216HW,2013-06-03 12:37:00,
2013-06-03 07:42:00,80.3,53.1,29.35,ESE,113,0.0,1.8,39,0.00,,,0.00,WUHU216HW,2013-06-03 12:42:00,
2013-06-03 07:47:00,80.3,51.6,29.35,ESE,113,0.2,1.1,37,0.00,,,0.00,WUHU216HW,2013-06-03 12:47:00,
2013-06-03 07:52:00,78.5,50.7,29.36,West,270,0.2,1.1,38,0.00,,,0.00,WUHU216HW,2013-06-03 12:52:00,
2013-06-03 07:57:00,77.0,48.7,29.36,WNW,293,0.4,0.9,37,0.00,,,0.00,WUHU216HW,2013-06-03 12:57:00,
2013-06-03 08:02:00,76.9,50.8,29.36,NW,315,0.0,0.9,40,0.00,,,0.00,WUHU216HW,2013-06-03 13:02:00,
2013-06-03 08:07:00,79.0,52.8,29.36,SE,135,0.7,1.6,40,0.00,,,0.00,WUHU216HW,2013-06-03 13:07:00,
2013-06-03 08:12:00,81.2,53.9,29.36,SSE,158,0.7,1.6,39,0.00,,,0.00,WUHU216HW,2013-06-03 13:12:00,
2013-06-03 08:17:00,81.7,52.8,29.36,WNW,293,0.0,1.6,37,0.00,,,0.00,WUHU216HW,2013-06-03 13:17:00,
2013-06-03 08:22:00,82.1,53.1,29.36,WNW,293,1.1,1.8,37,0.00,,,0.00,WUHU216HW,2013-06-03 13:22:00,
2013-06-03 08:27:00,82.8,52.9,29.36,North,0,0.4,2.0,36,0.00,,,0.00,WUHU216HW,2013-06-03 13:27:00,
2013-06-03 08:32:00,81.7,52.0,29.36,NNE,23,0.7,2.0,36,0.00,,,0.00,WUHU216HW,2013-06-03 13:32:00,
2013-06-03 08:37:00,79.4,50.8,29.36,NE,45,0.7,1.1,37,0.00,,,0.00,WUHU216HW,2013-06-03 13:37:00,
2013-06-03 08:42:00,77.2,50.3,29.36,SSE,158,0.9,1.1,39,0.00,,,0.00,WUHU216HW,2013-06-03 13:42:00,
2013-06-03 08:47:00,75.2,49.3,29.36,ESE,113,0.7,0.9,40,0.00,,,0.00,WUHU216HW,2013-06-03 13:47:00,
2013-06-03 08:52:00,73.6,49.1,29.36,SE,135,2.5,2.5,42,0.00,,,0.00,WUHU216HW,2013-06-03 13:52:00,
2013-06-03 08:57:00,72.7,48.9,29.36,North,0,0.4,2.5,43,0.00,,,0.00,WUHU216HW,2013-06-03 13:57:00,
2013-06-03 09:02:00,72.2,49.0,29.36,ESE,113,2.5,2.5,44,0.00,,,0.00,WUHU216HW,2013-06-03 14:02:00,
2013-06-03 09:07:00,71.1,48.6,29.36,ESE,113,2.2,2.5,45,0.00,,,0.00,WUHU216HW,2013-06-03 14:07:00,
2013-06-03 09:12:00,70.6,49.2,29.36,ESE,113,2.5,2.5,47,0.00,,,0.00,WUHU216HW,2013-06-03 14:12:00,
2013-06-03 09:17:00,70.2,49.0,29.36,ESE,113,0.4,2.9,47,0.00,,,0.00,WUHU216HW,2013-06-03 14:17:00,
2013-06-03 09:22:00,70.2,49.0,29.37,West,270,0.2,2.9,47,0.00,,,0.00,WUHU216HW,2013-06-03 14:22:00,
2013-06-03 09:27:00,70.4,49.7,29.37,WNW,293,0.9,2.5,48,0.00,,,0.00,WUHU216HW,2013-06-03 14:27:00,
2013-06-03 09:32:00,70.7,49.4,29.36,SSE,158,0.9,2.7,47,0.00,,,0.00,WUHU216HW,2013-06-03 14:32:00,
2013-06-03 09:37:00,70.6,48.7,29.36,ESE,113,0.9,2.7,46,0.00,,,0.00,WUHU216HW,2013-06-03 14:37:00,
2013-06-03 09:42:00,70.2,48.3,29.36,ENE,68,1.3,1.3,46,0.00,,,0.00,WUHU216HW,2013-06-03 14:42:00,
2013-06-03 09:47:00,69.5,48.3,29.36,NE,45,0.9,1.6,47,0.00,,,0.00,WUHU216HW,2013-06-03 14:47:00,
2013-06-03 09:52:00,69.3,48.2,29.36,WNW,293,1.1,1.6,47,0.00,,,0.00,WUHU216HW,2013-06-03 14:52:00,
2013-06-03 09:57:00,69.7,47.9,29.36,NNW,338,3.4,3.4,46,0.00,,,0.00,WUHU216HW,2013-06-03 14:57:00,
2013-06-03 10:02:00,70.2,48.3,29.36,East,90,1.1,3.4,46,0.00,,,0.00,WUHU216HW,2013-06-03 15:02:00,
2013-06-03 10:07:00,70.4,49.2,29.35,NE,45,2.0,3.4,47,0.00,,,0.00,WUHU216HW,2013-06-03 15:07:00,
2013-06-03 10:12:00,70.2,48.3,29.35,WNW,293,2.5,3.1,46,0.00,,,0.00,WUHU216HW,2013-06-03 15:12:00,
2013-06-03 10:17:00,70.6,48.7,29.35,WNW,293,1.8,3.1,46,0.00,,,0.00,WUHU216HW,2013-06-03 15:17:00,
2013-06-03 10:22:00,70.9,49.0,29.35,North,0,1.1,2.5,46,0.00,,,0.00,WUHU216HW,2013-06-03 15:22:00,
2013-06-03 10:27:00,70.9,48.4,29.35,NW,315,3.4,3.4,45,0.00,,,0.00,WUHU216HW,2013-06-03 15:27:00,
2013-06-03 10:32:00,70.6,47.5,29.35,North,0,0.2,3.4,44,0.00,,,0.00,WUHU216HW,2013-06-03 15:32:00,
2013-06-03 10:37:00,70.6,48.1,29.34,WNW,293,3.4,3.4,45,0.00,,,0.00,WUHU216HW,2013-06-03 15:37:00,
2013-06-03 10:42:00,70.9,47.8,29.35,North,0,2.5,4.0,44,0.00,,,0.00,WUHU216HW,2013-06-03 15:42:00,
2013-06-03 10:47:00,71.3,48.7,29.35,NNW,338,1.8,4.0,45,0.00,,,0.00,WUHU216HW,2013-06-03 15:47:00,
2013-06-03 10:52:00,71.6,47.9,29.36,SSW,203,0.4,4.9,43,0.00,,,0.00,WUHU216HW,2013-06-03 15:52:00,
2013-06-03 10:57:00,72.0,47.6,29.35,ESE,113,4.0,5.4,42,0.00,,,0.00,WUHU216HW,2013-06-03 15:57:00,
2013-06-03 11:02:00,71.6,46.7,29.35,NE,45,1.1,5.4,41,0.00,,,0.00,WUHU216HW,2013-06-03 16:02:00,
2013-06-03 11:07:00,71.5,47.1,29.35,SE,135,4.7,4.7,42,0.00,,,0.00,WUHU216HW,2013-06-03 16:07:00,
2013-06-03 11:12:00,71.8,46.8,29.35,ESE,113,1.8,4.7,41,0.00,,,0.00,WUHU216HW,2013-06-03 16:12:00,
2013-06-03 11:17:00,72.4,47.4,29.35,SSE,158,2.2,3.4,41,0.00,,,0.00,WUHU216HW,2013-06-03 16:17:00,
2013-06-03 11:22:00,72.7,47.6,29.35,SSE,158,3.4,4.5,41,0.00,,,0.00,WUHU216HW,2013-06-03 16:22:00,
2013-06-03 11:27:00,72.4,46.0,29.35,ESE,113,1.8,4.5,39,0.00,,,0.00,WUHU216HW,2013-06-03 16:27:00,
2013-06-03 11:32:00,71.6,46.1,29.35,SSE,158,3.4,5.1,40,0.00,,,0.00,WUHU216HW,2013-06-03 16:32:00,
2013-06-03 11:37:00,71.6,46.1,29.35,SSE,158,4.3,5.6,40,0.00,,,0.00,WUHU216HW,2013-06-03 16:37:00,
2013-06-03 11:42:00,71.6,46.7,29.35,SE,135,2.9,5.6,41,0.00,,,0.00,WUHU216HW,2013-06-03 16:42:00,
2013-06-03 11:47:00,72.4,47.4,29.35,NW,315,1.6,2.9,41,0.00,,,0.00,WUHU216HW,2013-06-03 16:47:00,
2013-06-03 11:52:00,73.3,48.2,29.35,West,270,2.2,3.1,41,0.00,,,0.00,WUHU216HW,2013-06-03 16:52:00,
2013-06-03 11:57:00,73.4,47.7,29.36,WNW,293,4.9,4.9,40,0.00,,,0.00,WUHU216HW,2013-06-03 16:57:00,
2013-06-03 12:02:00,74.2,48.3,29.35,WNW,293,2.0,4.9,40,0.00,,,0.00,WUHU216HW,2013-06-03 17:02:00,
2013-06-03 12:07:00,74.2,47.6,29.35,South,180,2.5,5.4,39,0.00,,,0.00,WUHU216HW,2013-06-03 17:07:00,
2013-06-03 12:12:00,73.8,45.7,29.35,West,270,5.8,5.8,37,0.00,,,0.00,WUHU216HW,2013-06-03 17:12:00,
2013-06-03 12:17:00,73.4,46.2,29.35,WNW,293,2.5,6.3,38,0.00,,,0.00,WUHU216HW,2013-06-03 17:17:00,
2013-06-03 12:22:00,73.1,46.6,29.35,West,270,2.0,6.3,39,0.00,,,0.00,WUHU216HW,2013-06-03 17:22:00,
2013-06-03 12:27:00,73.6,47.9,29.35,SE,135,1.1,2.0,40,0.00,,,0.00,WUHU216HW,2013-06-03 17:27:00,
2013-06-03 12:32:00,73.8,47.3,29.35,SSE,158,4.7,4.7,39,0.00,,,0.00,WUHU216HW,2013-06-03 17:32:00,
2013-06-03 12:37:00,73.8,47.3,29.35,NW,315,0.4,4.7,39,0.00,,,0.00,WUHU216HW,2013-06-03 17:37:00,
2013-06-03 12:42:00,74.0,47.4,29.35,SW,225,0.9,2.5,39,0.00,,,0.00,WUHU216HW,2013-06-03 17:42:00,
2013-06-03 12:47:00,74.2,47.6,29.34,West,270,2.5,4.3,39,0.00,,,0.00,WUHU216HW,2013-06-03 17:47:00,
2013-06-03 12:52:00,74.5,47.9,29.34,WSW,248,1.8,4.3,39,0.00,,,0.00,WUHU216HW,2013-06-03 17:52:00,
2013-06-03 12:57:00,74.5,47.2,29.34,SE,135,1.1,2.7,38,0.00,,,0.00,WUHU216HW,2013-06-03 17:57:00,
2013-06-03 13:02:00,74.0,45.9,29.34,SE,135,3.8,3.8,37,0.00,,,0.00,WUHU216HW,2013-06-03 18:02:00,
2013-06-03 13:07:00,73.6,46.4,29.34,SSE,158,2.7,4.5,38,0.00,,,0.00,WUHU216HW,2013-06-03 18:07:00,
2013-06-03 13:12:00,73.4,47.0,29.34,WNW,293,0.7,4.5,39,0.00,,,0.00,WUHU216HW,2013-06-03 18:12:00,
2013-06-03 13:17:00,73.4,47.0,29.34,WNW,293,1.8,2.7,39,0.00,,,0.00,WUHU216HW,2013-06-03 18:17:00,
2013-06-03 13:22:00,73.4,47.0,29.34,WNW,293,2.0,2.7,39,0.00,,,0.00,WUHU216HW,2013-06-03 18:22:00,
2013-06-03 13:27:00,73.6,47.1,29.34,SSE,158,2.0,2.5,39,0.00,,,0.00,WUHU216HW,2013-06-03 18:27:00,
2013-06-03 13:32:00,73.8,47.3,29.34,NE,45,0.0,2.7,39,0.00,,,0.00,WUHU216HW,2013-06-03 18:32:00,
2013-06-03 13:37:00,73.8,47.3,29.34,SSW,203,3.4,3.4,39,0.00,,,0.00,WUHU216HW,2013-06-03 18:37:00,
2013-06-03 13:42:00,73.6,46.4,29.34,ESE,113,1.1,3.4,38,0.00,,,0.00,WUHU216HW,2013-06-03 18:42:00,
2013-06-03 13:47:00,73.1,45.9,29.34,SE,135,0.0,2.2,38,0.00,,,0.00,WUHU216HW,2013-06-03 18:47:00,
2013-06-03 13:52:00,72.9,45.7,29.34,West,270,1.6,3.1,38,0.00,,,0.00,WUHU216HW,2013-06-03 18:52:00,
2013-06-03 13:57:00,72.7,45.5,29.34,SE,135,0.7,3.1,38,0.00,,,0.00,WUHU216HW,2013-06-03 18:57:00,
2013-06-03 14:02:00,72.5,46.2,29.34,SE,135,1.1,2.7,39,0.00,,,0.00,WUHU216HW,2013-06-03 19:02:00,
2013-06-03 14:07:00,72.5,46.2,29.34,NNE,23,0.2,1.6,39,0.00,,,0.00,WUHU216HW,2013-06-03 19:07:00,
2013-06-03 14:12:00,72.4,45.3,29.34,WNW,293,0.7,1.1,38,0.00,,,0.00,WUHU216HW,2013-06-03 19:12:00,
2013-06-03 14:17:00,72.4,46.0,29.34,North,0,0.2,1.8,39,0.00,,,0.00,WUHU216HW,2013-06-03 19:17:00,
2013-06-03 14:22:00,72.2,45.1,29.33,North,0,0.4,1.8,38,0.00,,,0.00,WUHU216HW,2013-06-03 19:22:00,
2013-06-03 14:27:00,71.8,44.0,29.33,NNW,338,0.7,1.6,37,0.00,,,0.00,WUHU216HW,2013-06-03 19:27:00,
2013-06-03 14:32:00,71.5,44.5,29.33,WNW,293,1.1,1.6,38,0.00,,,0.00,WUHU216HW,2013-06-03 19:32:00,
2013-06-03 14:37:00,71.6,44.7,29.32,NNW,338,0.7,1.3,38,0.00,,,0.00,WUHU216HW,2013-06-03 19:37:00,
2013-06-03 14:42:00,72.0,44.9,29.32,WNW,293,0.0,1.3,38,0.00,,,0.00,WUHU216HW,2013-06-03 19:42:00,
2013-06-03 14:47:00,72.9,46.4,29.32,SE,135,1.8,1.8,39,0.00,,,0.00,WUHU216HW,2013-06-03 19:47:00,
2013-06-03 14:52:00,73.1,46.6,29.32,SSE,158,3.1,3.1,39,0.00,,,0.00,WUHU216HW,2013-06-03 19:52:00,
2013-06-03 14:57:00,73.1,45.9,29.32,East,90,1.1,3.1,38,0.00,,,0.00,WUHU216HW,2013-06-03 19:57:00,
2013-06-03 15:02:00,72.7,45.5,29.32,SSE,158,1.3,3.1,38,0.00,,,0.00,WUHU216HW,2013-06-03 20:02:00,
2013-06-03 15:07:00,72.4,45.3,29.31,ESE,113,2.2,3.1,38,0.00,,,0.00,WUHU216HW,2013-06-03 20:07:00,
2013-06-03 15:12:00,72.2,45.1,29.31,ESE,113,1.8,2.5,38,0.00,,,0.00,WUHU216HW,2013-06-03 20:12:00,
2013-06-03 15:17:00,71.8,44.7,29.31,East,90,1.3,3.4,38,0.00,,,0.00,WUHU216HW,2013-06-03 20:17:00,
2013-06-03 15:22:00,71.3,45.0,29.31,ESE,113,2.2,3.4,39,0.00,,,0.00,WUHU216HW,2013-06-03 20:22:00,
2013-06-03 15:27:00,71.3,45.0,29.31,SE,135,2.7,4.5,39,0.00,,,0.00,WUHU216HW,2013-06-03 20:27:00,
2013-06-03 15:32:00,71.3,45.0,29.31,NE,45,0.2,4.5,39,0.00,,,0.00,WUHU216HW,2013-06-03 20:32:00,
2013-06-03 15:37:00,70.9,44.7,29.31,SE,135,2.5,3.1,39,0.00,,,0.00,WUHU216HW,2013-06-03 20:37:00,
2013-06-03 15:42:00,70.2,44.8,29.31,East,90,0.9,3.1,40,0.00,,,0.00,WUHU216HW,2013-06-03 20:42:00,
2013-06-03 15:47:00,69.3,44.0,29.31,NNE,23,1.6,2.5,40,0.00,,,0.00,WUHU216HW,2013-06-03 20:47:00,
2013-06-03 15:52:00,68.4,43.7,29.32,ESE,113,1.6,2.5,41,0.00,,,0.00,WUHU216HW,2013-06-03 20:52:00,
2013-06-03 15:57:00,67.7,43.1,29.32,NE,45,0.7,3.4,41,0.00,,,0.00,WUHU216HW,2013-06-03 20:57:00,
2013-06-03 16:02:00,67.5,43.6,29.32,ESE,113,1.1,3.4,42,0.00,,,0.00,WUHU216HW,2013-06-03 21:02:00,
2013-06-03 16:07:00,67.5,44.1,29.32,East,90,0.7,1.3,43,0.00,,,0.00,WUHU216HW,2013-06-03 21:07:00,
2013-06-03 16:12:00,67.5,44.1,29.31,SE,135,1.1,1.8,43,0.00,,,0.00,WUHU216HW,2013-06-03 21:12:00,
2013-06-03 16:17:00,68.0,44.7,29.31,East,90,1.1,1.8,43,0.00,,,0.00,WUHU216HW,2013-06-03 21:17:00,
2013-06-03 16:22:00,68.6,45.7,29.30,SE,135,1.6,2.2,44,0.00,,,0.00,WUHU216HW,2013-06-03 21:22:00,
2013-06-03 16:27:00,68.6,45.1,29.30,ESE,113,2.0,2.9,43,0.00,,,0.00,WUHU216HW,2013-06-03 21:27:00,
2013-06-03 16:32:00,68.0,44.7,29.29,ESE,113,2.5,2.9,43,0.00,,,0.00,WUHU216HW,2013-06-03 21:32:00,
2013-06-03 16:37:00,67.5,44.7,29.29,East,90,2.2,2.5,44,0.00,,,0.00,WUHU216HW,2013-06-03 21:37:00,
2013-06-03 16:42:00,66.8,44.1,29.29,ESE,113,2.0,2.9,44,0.00,,,0.00,WUHU216HW,2013-06-03 21:42:00,
2013-06-03 16:47:00,66.6,44.6,29.29,ESE,113,2.9,2.9,45,0.00,,,0.00,WUHU216HW,2013-06-03 21:47:00,
2013-06-03 16:52:00,66.4,44.4,29.29,East,90,2.2,3.8,45,0.00,,,0.00,WUHU216HW,2013-06-03 21:52:00,
2013-06-03 16:57:00,66.1,44.7,29.28,ESE,113,1.8,3.8,46,0.00,,,0.00,WUHU216HW,2013-06-03 21:57:00,
2013-06-03 17:02:00,65.9,45.0,29.28,SE,135,1.8,2.9,47,0.00,,,0.00,WUHU216HW,2013-06-03 22:02:00,
2013-06-03 17:07:00,65.9,45.0,29.28,SSE,158,2.7,4.5,47,0.00,,,0.00,WUHU216HW,2013-06-03 22:07:00,
2013-06-03 17:12:00,65.9,45.0,29.28,East,90,2.7,4.5,47,0.00,,,0.00,WUHU216HW,2013-06-03 22:12:00,
2013-06-03 17:17:00,65.7,44.8,29.28,ESE,113,3.6,3.6,47,0.00,,,0.00,WUHU216HW,2013-06-03 22:17:00,
2013-06-03 17:22:00,65.7,45.5,29.28,East,90,1.1,3.6,48,0.00,,,0.00,WUHU216HW,2013-06-03 22:22:00,
2013-06-03 17:27:00,65.5,45.3,29.28,ESE,113,3.1,3.1,48,0.00,,,0.00,WUHU216HW,2013-06-03 22:27:00,
2013-06-03 17:32:00,65.5,45.8,29.28,SE,135,2.0,3.1,49,0.00,,,0.00,WUHU216HW,2013-06-03 22:32:00,
2013-06-03 17:37:00,65.3,45.7,29.28,SE,135,2.0,3.1,49,0.00,,,0.00,WUHU216HW,2013-06-03 22:37:00,
2013-06-03 17:42:00,65.0,45.4,29.28,East,90,2.0,2.0,49,0.00,,,0.00,WUHU216HW,2013-06-03 22:42:00,
2013-06-03 17:47:00,64.8,45.7,29.27,ESE,113,2.5,2.5,50,0.00,,,0.00,WUHU216HW,2013-06-03 22:47:00,
2013-06-03 17:52:00,65.0,46.4,29.26,ESE,113,3.4,3.4,51,0.00,,,0.00,WUHU216HW,2013-06-03 22:52:00,
2013-06-03 17:57:00,65.0,45.9,29.25,ESE,113,4.3,5.1,50,0.00,,,0.00,WUHU216HW,2013-06-03 22:57:00,
2013-06-03 18:02:00,65.2,45.6,29.26,ESE,113,3.6,5.1,49,0.00,,,0.00,WUHU216HW,2013-06-03 23:02:00,
2013-06-03 18:07:00,65.2,45.6,29.26,SE,135,3.6,4.9,49,0.00,,,0.00,WUHU216HW,2013-06-03 23:07:00,
2013-06-03 18:12:00,65.2,45.6,29.27,East,90,2.5,4.3,49,0.00,,,0.00,WUHU216HW,2013-06-03 23:12:00,
2013-06-03 18:17:00,65.2,46.1,29.26,SE,135,3.1,4.3,50,0.00,,,0.00,WUHU216HW,2013-06-03 23:17:00,
2013-06-03 18:22:00,65.5,46.4,29.26,ESE,113,3.4,4.7,50,0.00,,,0.00,WUHU216HW,2013-06-03 23:22:00,
2013-06-03 18:27:00,65.7,46.6,29.27,SE,135,2.5,4.7,50,0.00,,,0.00,WUHU216HW,2013-06-03 23:27:00,
2013-06-03 18:32:00,65.7,46.0,29.28,SE,135,4.0,4.0,49,0.00,,,0.00,WUHU216HW,2013-06-03 23:32:00,
2013-06-03 18:37:00,65.7,46.0,29.28,SE,135,2.2,4.3,49,0.00,,,0.00,WUHU216HW,2013-06-03 23:37:00,
2013-06-03 18:42:00,65.7,46.0,29.28,ESE,113,0.7,4.3,49,0.00,,,0.00,WUHU216HW,2013-06-03 23:42:00,
2013-06-03 18:47:00,66.2,46.5,29.29,ESE,113,1.8,4.7,49,0.00,,,0.00,WUHU216HW,2013-06-03 23:47:00,
2013-06-03 18:52:00,66.6,46.9,29.29,SE,135,3.1,4.7,49,0.00,,,0.00,WUHU216HW,2013-06-03 23:52:00,
2013-06-03 18:57:00,66.8,46.4,29.29,ESE,113,2.0,4.3,48,0.00,,,0.00,WUHU216HW,2013-06-03 23:57:00,
2013-06-03 19:02:00,66.6,46.3,29.28,ESE,113,2.9,3.1,48,0.00,,,0.00,WUHU216HW,2013-06-04 00:02:00,
2013-06-03 19:07:00,66.4,46.7,29.29,SE,135,2.0,3.1,49,0.00,,,0.00,WUHU216HW,2013-06-04 00:07:00,
2013-06-03 19:12:00,66.2,47.2,29.29,ESE,113,2.5,2.9,50,0.00,,,0.00,WUHU216HW,2013-06-04 00:12:00,
2013-06-03 19:17:00,66.2,46.5,29.29,East,90,1.3,2.7,49,0.00,,,0.00,WUHU216HW,2013-06-04 00:17:00,
2013-06-03 19:22:00,66.1,47.0,29.29,ESE,113,1.3,2.7,50,0.00,,,0.00,WUHU216HW,2013-06-04 00:22:00,
2013-06-03 19:27:00,65.9,46.2,29.29,ESE,113,1.8,2.9,49,0.00,,,0.00,WUHU216HW,2013-06-04 00:27:00,
2013-06-03 19:32:00,65.7,46.0,29.29,SE,135,2.5,4.5,49,0.00,,,0.00,WUHU216HW,2013-06-04 00:32:00,
2013-06-03 19:37:00,65.3,46.3,29.30,SSE,158,2.7,4.5,50,0.00,,,0.00,WUHU216HW,2013-06-04 00:37:00,
2013-06-03 19:42:00,65.2,46.1,29.30,ESE,113,1.1,2.7,50,0.00,,,0.00,WUHU216HW,2013-06-04 00:42:00,
2013-06-03 19:47:00,65.0,46.4,29.29,ESE,113,2.5,2.5,51,0.00,,,0.00,WUHU216HW,2013-06-04 00:47:00,
2013-06-03 19:52:00,64.8,46.2,29.29,East,90,1.1,2.5,51,0.00,,,0.00,WUHU216HW,2013-06-04 00:52:00,
2013-06-03 19:57:00,64.4,45.8,29.30,East,90,0.2,1.8,51,0.00,,,0.00,WUHU216HW,2013-06-04 00:57:00,
2013-06-03 20:02:00,64.4,46.4,29.30,ESE,113,0.4,1.1,52,0.00,,,0.00,WUHU216HW,2013-06-04 01:02:00,
2013-06-03 20:07:00,64.3,46.2,29.31,SE,135,0.0,1.1,52,0.00,,,0.00,WUHU216HW,2013-06-04 01:07:00,
2013-06-03 20:12:00,64.3,46.2,29.31,SE,135,0.0,0.9,52,0.00,,,0.00,WUHU216HW,2013-06-04 01:12:00,
2013-06-03 20:17:00,64.3,46.2,29.32,SE,135,0.0,0.0,52,0.00,,,0.00,WUHU216HW,2013-06-04 01:17:00,
2013-06-03 20:22:00,64.1,46.0,29.32,SE,135,0.0,0.0,52,0.00,,,0.00,WUHU216HW,2013-06-04 01:22:00,
2013-06-03 20:27:00,64.1,46.0,29.33,SE,135,0.0,0.0,52,0.00,,,0.00,WUHU216HW,2013-06-04 01:27:00,
2013-06-03 20:32:00,63.7,46.2,29.33,SE,135,0.0,0.0,53,0.00,,,0.00,WUHU216HW,2013-06-04 01:32:00,
2013-06-03 20:37:00,63.5,46.5,29.33,SE,135,0.0,0.0,54,0.00,,,0.00,WUHU216HW,2013-06-04 01:37:00,
2013-06-03 20:42:00,63.4,46.4,29.33,SE,135,0.4,0.4,54,0.00,,,0.00,WUHU216HW,2013-06-04 01:42:00,
2013-06-03 20:47:00,63.0,46.5,29.33,SE,135,0.2,0.7,55,0.00,,,0.00,WUHU216HW,2013-06-04 01:47:00,
2013-06-03 20:52:00,63.0,46.5,29.33,ESE,113,0.4,0.7,55,0.00,,,0.00,WUHU216HW,2013-06-04 01:52:00,
2013-06-03 20:57:00,63.0,46.5,29.33,SE,135,0.4,0.4,55,0.00,,,0.00,WUHU216HW,2013-06-04 01:57:00,
2013-06-03 21:02:00,62.8,46.8,29.33,ESE,113,0.4,0.7,56,0.00,,,0.00,WUHU216HW,2013-06-04 02:02:00,
2013-06-03 21:07:00,62.5,46.5,29.33,ESE,113,0.9,0.9,56,0.00,,,0.00,WUHU216HW,2013-06-04 02:07:00,
2013-06-03 21:12:00,62.3,46.8,29.33,ESE,113,1.6,1.6,57,0.00,,,0.00,WUHU216HW,2013-06-04 02:12:00,
2013-06-03 21:17:00,62.1,46.6,29.33,SE,135,0.4,1.6,57,0.00,,,0.00,WUHU216HW,2013-06-04 02:17:00,
2013-06-03 21:22:00,62.1,46.6,29.33,ESE,113,1.1,1.1,57,0.00,,,0.00,WUHU216HW,2013-06-04 02:22:00,
2013-06-03 21:27:00,62.1,46.6,29.33,ESE,113,1.1,1.3,57,0.00,,,0.00,WUHU216HW,2013-06-04 02:27:00,
2013-06-03 21:32:00,61.9,46.5,29.33,East,90,0.9,1.6,57,0.00,,,0.00,WUHU216HW,2013-06-04 02:32:00,
2013-06-03 21:37:00,61.9,47.0,29.34,SE,135,1.1,1.6,58,0.00,,,0.00,WUHU216HW,2013-06-04 02:37:00,
2013-06-03 21:42:00,61.6,47.2,29.33,ESE,113,1.6,1.8,59,0.00,,,0.00,WUHU216HW,2013-06-04 02:42:00,
2013-06-03 21:47:00,61.6,47.6,29.33,ESE,113,0.7,1.8,60,0.00,,,0.00,WUHU216HW,2013-06-04 02:47:00,
2013-06-03 21:52:00,61.6,47.6,29.34,ESE,113,1.1,1.8,60,0.00,,,0.00,WUHU216HW,2013-06-04 02:52:00,
2013-06-03 21:57:00,61.4,47.4,29.34,ESE,113,1.1,1.8,60,0.00,,,0.00,WUHU216HW,2013-06-04 02:57:00,
2013-06-03 22:02:00,61.4,47.4,29.34,ESE,113,0.9,1.3,60,0.00,,,0.00,WUHU216HW,2013-06-04 03:02:00,
2013-06-03 22:07:00,61.4,47.4,29.34,East,90,1.3,1.3,60,0.00,,,0.00,WUHU216HW,2013-06-04 03:07:00,
2013-06-03 22:12:00,61.2,47.4,29.34,ESE,113,1.8,1.8,60,0.00,,,0.00,WUHU216HW,2013-06-04 03:12:00,
2013-06-03 22:17:00,61.2,47.7,29.34,ESE,113,1.3,1.8,61,0.00,,,0.00,WUHU216HW,2013-06-04 03:17:00,
2013-06-03 22:23:00,61.2,47.7,29.34,ESE,113,1.8,1.8,61,0.00,,,0.00,WUHU216HW,2013-06-04 03:23:00,
2013-06-03 22:28:00,61.2,47.7,29.34,NE,45,1.1,1.8,61,0.00,,,0.00,WUHU216HW,2013-06-04 03:28:00,
2013-06-03 22:33:00,61.2,48.2,29.34,East,90,1.3,2.0,62,0.00,,,0.00,WUHU216HW,2013-06-04 03:33:00,
2013-06-03 22:38:00,61.0,48.0,29.34,ESE,113,1.1,2.0,62,0.00,,,0.00,WUHU216HW,2013-06-04 03:38:00,
2013-06-03 22:43:00,60.8,48.3,29.34,ESE,113,1.1,2.0,63,0.00,,,0.00,WUHU216HW,2013-06-04 03:43:00,
2013-06-03 22:48:00,60.8,48.3,29.35,ESE,113,0.4,2.0,63,0.00,,,0.00,WUHU216HW,2013-06-04 03:48:00,
2013-06-03 22:53:00,60.8,47.8,29.35,ESE,113,1.1,2.7,62,0.00,,,0.00,WUHU216HW,2013-06-04 03:53:00,
2013-06-03 22:58:00,60.8,47.8,29.35,ESE,113,0.0,2.7,62,0.00,,,0.00,WUHU216HW,2013-06-04 03:58:00,
2013-06-03 23:01:00,60.8,47.8,29.36,East,90,0.4,1.1,62,0.00,,,0.00,WUHU216HW,2013-06-04 04:01:00,
2013-06-03 23:02:00,60.8,47.8,29.36,ESE,113,0.7,0.9,62,0.00,,,0.00,WUHU216HW,2013-06-04 04:02:00,
2013-06-03 23:07:00,60.7,47.6,29.35,East,90,1.1,1.1,62,0.00,,,0.00,WUHU216HW,2013-06-04 04:07:00,
2013-06-03 23:12:00,60.7,48.1,29.35,East,90,1.1,1.1,63,0.00,,,0.00,WUHU216HW,2013-06-04 04:12:00,
2013-06-03 23:17:00,60.5,47.9,29.36,ESE,113,0.4,1.1,63,0.00,,,0.00,WUHU216HW,2013-06-04 04:17:00,
2013-06-03 23:22:00,60.3,48.1,29.36,ESE,113,0.9,1.1,64,0.00,,,0.00,WUHU216HW,2013-06-04 04:22:00,
2013-06-03 23:27:00,60.3,48.1,29.35,ESE,113,1.3,1.3,64,0.00,,,0.00,WUHU216HW,2013-06-04 04:27:00,
2013-06-03 23:32:00,60.1,48.3,29.35,SE,135,1.3,1.8,65,0.00,,,0.00,WUHU216HW,2013-06-04 04:32:00,
2013-06-03 23:37:00,59.9,47.7,29.36,ESE,113,0.4,1.8,64,0.00,,,0.00,WUHU216HW,2013-06-04 04:37:00,
2013-06-03 23:42:00,59.9,47.7,29.35,East,90,1.8,1.8,64,0.00,,,0.00,WUHU216HW,2013-06-04 04:42:00,
2013-06-03 23:47:00,59.9,47.7,29.35,East,90,2.5,2.5,64,0.00,,,0.00,WUHU216HW,2013-06-04 04:47:00,
2013-06-03 23:52:00,59.8,47.5,29.34,East,90,2.5,2.7,64,0.00,,,0.00,WUHU216HW,2013-06-04 04:52:00,
2013-06-03 23:57:00,59.8,47.5,29.34,East,90,2.9,2.9,64,0.00,,,0.00,WUHU216HW,2013-06-04 04:57:00,